AirNav   Bose Proflight Series 2 Wireless Aviation Headset
 
 325 users online  

12MD St Agnes Health Care Heliport
Baltimore, Maryland, USA

GOING TO BALTIMORE?


FAA INFORMATION EFFECTIVE 07 NOVEMBER 2019

Location

FAA Identifier: 12MD
Lat/Long: 39-16-14.0000N 076-40-25.8000W
39-16.233333N 076-40.430000W
39.2705556,-76.6738333
(estimated)
Elevation: 141 ft. / 43 m (estimated)
Time zone: UTC -5 (UTC -4 during Daylight Saving Time)
Zip code: 21227

Heliport Operations

Heliport use: Private use. Permission required prior to landing
Activation date: 04/2004
Control tower: no
ARTCC: WASHINGTON CENTER
FSS: LEESBURG FLIGHT SERVICE STATION
Attendance:  UNATNDD
Wind indicator: lighted
Segmented circle: no

Heliport Communications

WX ASOS at BWI (6 nm S): PHONE 410-691-1278
WX AWOS-3 at FME (12 nm S): 123.925
WX AWOS-3PT at MTN (13 nm E): 124.925 (410-682-8848)

Nearby radio navigation aids

VOR radial/distance  VOR name  Freq  Var
BALr005/6.0BALTIMORE VORTAC115.1011W
EMIr142/19.5WESTMINSTER VORTAC117.9008W
ADWr028/29.2ANDREWS VORTAC113.1010W
DCAr043/29.9WASHINGTON VOR/DME111.0009W
FDKr113/(33.6)FREDERICK VOR109.0008W
OTTr016/34.0NOTTINGHAM VORTAC113.7010W

 
NDB name  Hdg/Dist  Freq  Var  ID
ELLICOTT113/4.937111WFND ..-. -. -..
GEORGETOWN055/29.332309WGTN --. - -.
OXONN040/34.533211WDCA -.. -.-. .-

Heliport Services

Runway Information

Helipad H1

Dimensions: 40 x 40 ft. / 12 x 12 m
Surface: concrete
Latitude: 39-16.233333N
Longitude: 076-40.430000W
Elevation: 141.0 ft.
Traffic pattern: leftleft

Heliport Ownership and Management from official FAA records

Ownership: Privately-owned
Owner: ST AGNES HEALTH CARE
900 S. CATON AVE
BALTIMORE, MD 21229
Phone 410-368-2759
Manager: PAUL DONNELLY
900 S. CATONAVE
BALTIMORE, MD 21229
Phone 410-368-2151
OTHER CONTACT: SUSAN NIETO, 410-368-2116

Additional Remarks

FOR CD CTC POTOMAC APCH AT 866-429-5882.

Instrument Procedures

There are no published instrument procedures at 12MD.

Some nearby airports with instrument procedures:

KBWI - Baltimore/Washington International Thurgood Marshall Airport (6 nm S)
KFME - Tipton Airport (12 nm S)
KMTN - Martin State Airport (13 nm E)
KEDG - Weide Army Heliport (Aberdeen Proving Ground) (19 nm E)
2W2 - Clearview Airpark (20 nm NW)
 
Loc | Ops | Rwys | IFR | FBO | Links
Com | Nav | Svcs | Stats | Notes
Area around 12MD (St Agnes Health Care Heliport)
 
Road maps at: MapQuest Bing Google
 
Aerial photo
No photo
 
Sectional chart

 
Airport distance calculator
Flying to St Agnes Health Care Heliport? Find the distance to fly.

From to 12MD

Sunrise and sunset
Times for 12-Nov-2019
 Local
(UTC-5)
 Zulu
(UTC)
Morning civil twilight06:1911:19
Sunrise06:4811:48
Sunset16:5421:54
Evening civil twilight17:2222:22

Current date and time
Zulu (UTC)  12-Nov-2019 10:45:01
Local (UTC-5)  12-Nov-2019 05:45:01
 
METAR
KDMH 
3nm E 
120954Z AUTO 13/08 A2977 RMK AO1 SLP081 T01280083
KBWI 
6nm S 
120954Z 24006KT 10SM -RA FEW060 OVC080 12/09 A2977 RMK AO2 SLP080 P0002 T01170089
KFME 
12nm S 
121021Z AUTO 27004KT 7SM SCT040 BKN055 OVC075 10/09 A2981 RMK AO1
KMTN 
12nm E 
120154Z 16005KT 10SM SKC 13/11 A2987
KNAK 
19nm SE 
120954Z AUTO 25004KT 10SM FEW080 BKN100 OVC120 15/05 A2977 RMK AO2 SLP082 T01500050
TAF
KBWI 
6nm S 
120858Z 1209/1312 24008KT 6SM -RA BKN050 OVC130 FM121100 28012G24KT 6SM -RA BKN020 OVC130 FM121300 31014G28KT P6SM VCSH SCT050 OVC130 FM122000 32014G28KT P6SM SCT050 FM130000 33010G20KT P6SM SCT050 FM130500 34008KT P6SM SCT050
KMTN 
12nm E 
120520Z 1206/1306 21008G16KT P6SM OVC130 FM120900 24008KT P6SM -RA BKN050 OVC130 FM121100 27012G24KT 6SM -RA BKN020 OVC130 FM121300 29014G28KT P6SM VCSH SCT050 OVC130 FM122000 30014G28KT P6SM SCT050 FM130000 31010G20KT P6SM SCT050 FM130500 31008KT P6SM SCT050 AMD NOT SKED
NOTAMs
Click for the latest NOTAMs
NOTAMs are issued by the DoD/FAA and will open in a separate window not controlled by AirNav.

 

 
 

Would you like to see your business listed on this page?

 If your business provides an interesting product or service to pilots, flight crews, aircraft, or users of the St Agnes Health Care Heliport, you should consider listing it here.  To start the listing process, click on the button below
 
Add a business
 

Other Pages about St Agnes Health Care Heliport

Update a link
 
Copyright © AirNav, LLC. All rights reserved. Privacy Policy  Contact